IE-0029 weather

Borris-in-Ossory Airstrip
County Laois, Ireland

Public forecast

Using degrees Celsius for public forecast. Weather courtesy of forecast.io.

METAR (pilot weather report)

Closest report is Shannon Airport, 48.1 nm (89.0 km) WSW. Retrieved 2019/06/26 03:30 UTC (16 minutes ago):

EINN 260330Z 04006KT CAVOK 14/12 Q1027 NOSIG

TAF (pilot weather forecast)

Forecast is more than 12 hours old.

Closest forecast is Shannon Airport, 48.1 nm (89.0 km) WSW. Retrieved 2019/06/25 00:11 UTC (1 day ago):

TAF EINN 252300Z 2600/2624 05010KT 9999 FEW020 PROB30 TEMPO 2601/2604 3000 BR